sensor_id;sensor_type;location;lat;lon;timestamp;P1;durP1;ratioP1;P2;durP2;ratioP2
12059;SDS011;6091;51.432;6.880;2023-11-22T00:01:21;1.30;;;1.20;;
12059;SDS011;6091;51.432;6.880;2023-11-22T00:03:48;1.25;;;1.15;;
12059;SDS011;6091;51.432;6.880;2023-11-22T00:06:16;1.38;;;1.27;;
12059;SDS011;6091;51.432;6.880;2023-11-22T00:08:46;0.98;;;0.98;;
12059;SDS011;6091;51.432;6.880;2023-11-22T00:11:14;1.45;;;1.35;;
12059;SDS011;6091;51.432;6.880;2023-11-22T00:13:43;1.50;;;1.40;;
12059;SDS011;6091;51.432;6.880;2023-11-22T00:16:10;1.15;;;1.10;;
12059;SDS011;6091;51.432;6.880;2023-11-22T00:18:38;1.25;;;1.13;;
12059;SDS011;6091;51.432;6.880;2023-11-22T00:21:05;1.38;;;1.27;;
12059;SDS011;6091;51.432;6.880;2023-11-22T00:23:32;1.50;;;1.40;;
12059;SDS011;6091;51.432;6.880;2023-11-22T00:26:00;1.30;;;1.20;;
12059;SDS011;6091;51.432;6.880;2023-11-22T00:28:27;1.40;;;1.30;;
12059;SDS011;6091;51.432;6.880;2023-11-22T00:30:54;1.30;;;1.20;;
12059;SDS011;6091;51.432;6.880;2023-11-22T00:33:21;1.35;;;1.25;;
12059;SDS011;6091;51.432;6.880;2023-11-22T00:35:49;1.30;;;1.25;;
12059;SDS011;6091;51.432;6.880;2023-11-22T00:38:16;1.35;;;1.25;;
12059;SDS011;6091;51.432;6.880;2023-11-22T00:40:43;1.20;;;1.20;;
12059;SDS011;6091;51.432;6.880;2023-11-22T00:43:11;1.40;;;1.30;;
12059;SDS011;6091;51.432;6.880;2023-11-22T00:45:38;1.40;;;1.30;;
12059;SDS011;6091;51.432;6.880;2023-11-22T00:48:05;1.33;;;1.23;;
12059;SDS011;6091;51.432;6.880;2023-11-22T00:50:32;1.10;;;1.10;;
12059;SDS011;6091;51.432;6.880;2023-11-22T00:52:59;1.30;;;1.20;;
12059;SDS011;6091;51.432;6.880;2023-11-22T00:55:26;1.02;;;1.02;;
12059;SDS011;6091;51.432;6.880;2023-11-22T00:57:53;1.25;;;1.15;;
12059;SDS011;6091;51.432;6.880;2023-11-22T01:00:22;1.20;;;1.20;;
12059;SDS011;6091;51.432;6.880;2023-11-22T01:02:50;1.15;;;1.05;;
12059;SDS011;6091;51.432;6.880;2023-11-22T01:05:19;1.30;;;1.20;;
12059;SDS011;6091;51.432;6.880;2023-11-22T01:07:47;1.20;;;1.20;;
12059;SDS011;6091;51.432;6.880;2023-11-22T01:10:14;1.30;;;1.20;;
12059;SDS011;6091;51.432;6.880;2023-11-22T01:12:41;1.40;;;1.30;;
12059;SDS011;6091;51.432;6.880;2023-11-22T01:15:09;1.23;;;1.20;;
12059;SDS011;6091;51.432;6.880;2023-11-22T01:17:36;1.30;;;1.20;;
12059;SDS011;6091;51.432;6.880;2023-11-22T01:20:04;1.40;;;1.30;;
12059;SDS011;6091;51.432;6.880;2023-11-22T01:22:33;1.15;;;1.05;;
12059;SDS011;6091;51.432;6.880;2023-11-22T01:25:00;1.30;;;1.20;;
12059;SDS011;6091;51.432;6.880;2023-11-22T01:27:28;1.10;;;1.10;;
12059;SDS011;6091;51.432;6.880;2023-11-22T01:29:55;1.10;;;1.10;;
12059;SDS011;6091;51.432;6.880;2023-11-22T01:32:23;1.17;;;1.08;;
12059;SDS011;6091;51.432;6.880;2023-11-22T01:34:51;1.20;;;1.10;;
12059;SDS011;6091;51.432;6.880;2023-11-22T01:37:18;1.17;;;1.08;;
12059;SDS011;6091;51.432;6.880;2023-11-22T01:39:45;1.23;;;1.20;;
12059;SDS011;6091;51.432;6.880;2023-11-22T01:42:12;1.20;;;1.10;;
12059;SDS011;6091;51.432;6.880;2023-11-22T01:44:39;1.00;;;1.00;;
12059;SDS011;6091;51.432;6.880;2023-11-22T01:47:08;1.40;;;1.30;;
12059;SDS011;6091;51.432;6.880;2023-11-22T01:49:36;1.55;;;1.45;;
12059;SDS011;6091;51.432;6.880;2023-11-22T01:52:03;1.08;;;1.08;;
12059;SDS011;6091;51.432;6.880;2023-11-22T01:54:31;1.00;;;1.00;;
12059;SDS011;6091;51.432;6.880;2023-11-22T01:56:59;1.33;;;1.23;;
12059;SDS011;6091;51.432;6.880;2023-11-22T01:59:28;1.13;;;1.02;;
12059;SDS011;6091;51.432;6.880;2023-11-22T02:01:58;1.17;;;1.08;;
12059;SDS011;6091;51.432;6.880;2023-11-22T02:04:25;1.10;;;1.10;;
12059;SDS011;6091;51.432;6.880;2023-11-22T02:06:53;1.40;;;1.30;;
12059;SDS011;6091;51.432;6.880;2023-11-22T02:09:20;1.13;;;1.10;;
12059;SDS011;6091;51.432;6.880;2023-11-22T02:11:48;1.05;;;1.05;;
12059;SDS011;6091;51.432;6.880;2023-11-22T02:14:15;1.30;;;1.20;;
12059;SDS011;6091;51.432;6.880;2023-11-22T02:16:43;1.13;;;1.08;;
12059;SDS011;6091;51.432;6.880;2023-11-22T02:19:17;0.93;;;0.93;;
12059;SDS011;6091;51.432;6.880;2023-11-22T02:21:44;1.10;;;1.10;;
12059;SDS011;6091;51.432;6.880;2023-11-22T02:24:11;0.82;;;0.82;;
12059;SDS011;6091;51.432;6.880;2023-11-22T02:26:43;1.30;;;1.20;;
12059;SDS011;6091;51.432;6.880;2023-11-22T02:29:12;0.98;;;0.98;;
12059;SDS011;6091;51.432;6.880;2023-11-22T02:31:40;1.17;;;1.08;;
12059;SDS011;6091;51.432;6.880;2023-11-22T02:34:11;1.17;;;1.17;;
12059;SDS011;6091;51.432;6.880;2023-11-22T02:36:38;1.08;;;1.08;;
12059;SDS011;6091;51.432;6.880;2023-11-22T02:39:20;1.30;;;1.20;;
12059;SDS011;6091;51.432;6.880;2023-11-22T02:41:55;1.25;;;1.20;;
12059;SDS011;6091;51.432;6.880;2023-11-22T02:44:22;1.23;;;1.23;;
12059;SDS011;6091;51.432;6.880;2023-11-22T02:46:50;1.10;;;1.10;;
12059;SDS011;6091;51.432;6.880;2023-11-22T02:49:17;0.93;;;0.93;;
12059;SDS011;6091;51.432;6.880;2023-11-22T02:51:44;1.20;;;1.10;;
12059;SDS011;6091;51.432;6.880;2023-11-22T02:54:12;1.38;;;1.27;;
12059;SDS011;6091;51.432;6.880;2023-11-22T02:56:40;1.20;;;1.10;;
12059;SDS011;6091;51.432;6.880;2023-11-22T02:59:07;1.10;;;1.10;;
12059;SDS011;6091;51.432;6.880;2023-11-22T03:01:39;1.10;;;1.10;;
12059;SDS011;6091;51.432;6.880;2023-11-22T03:04:11;0.98;;;0.98;;
12059;SDS011;6091;51.432;6.880;2023-11-22T03:06:42;1.17;;;1.08;;
12059;SDS011;6091;51.432;6.880;2023-11-22T03:09:11;1.23;;;1.10;;
12059;SDS011;6091;51.432;6.880;2023-11-22T03:11:40;0.98;;;0.98;;
12059;SDS011;6091;51.432;6.880;2023-11-22T03:14:07;1.17;;;1.10;;
12059;SDS011;6091;51.432;6.880;2023-11-22T03:16:38;1.50;;;1.40;;
12059;SDS011;6091;51.432;6.880;2023-11-22T03:19:06;1.00;;;1.00;;
12059;SDS011;6091;51.432;6.880;2023-11-22T03:21:33;1.27;;;1.17;;
12059;SDS011;6091;51.432;6.880;2023-11-22T03:24:02;0.80;;;0.80;;
12059;SDS011;6091;51.432;6.880;2023-11-22T03:26:30;1.10;;;1.00;;
12059;SDS011;6091;51.432;6.880;2023-11-22T03:28:57;1.20;;;1.10;;
12059;SDS011;6091;51.432;6.880;2023-11-22T03:31:24;1.00;;;1.00;;
12059;SDS011;6091;51.432;6.880;2023-11-22T03:33:51;1.15;;;1.10;;
12059;SDS011;6091;51.432;6.880;2023-11-22T03:36:18;1.00;;;1.00;;
12059;SDS011;6091;51.432;6.880;2023-11-22T03:38:45;1.00;;;1.00;;
12059;SDS011;6091;51.432;6.880;2023-11-22T03:41:13;1.13;;;1.02;;
12059;SDS011;6091;51.432;6.880;2023-11-22T03:43:40;0.95;;;0.95;;
12059;SDS011;6091;51.432;6.880;2023-11-22T03:46:10;0.85;;;0.85;;
12059;SDS011;6091;51.432;6.880;2023-11-22T03:48:38;0.98;;;0.90;;
12059;SDS011;6091;51.432;6.880;2023-11-22T03:51:05;1.08;;;1.08;;
12059;SDS011;6091;51.432;6.880;2023-11-22T03:53:32;1.23;;;1.20;;
12059;SDS011;6091;51.432;6.880;2023-11-22T03:55:59;1.27;;;1.27;;
12059;SDS011;6091;51.432;6.880;2023-11-22T03:58:26;1.02;;;1.02;;
12059;SDS011;6091;51.432;6.880;2023-11-22T04:00:53;1.20;;;1.10;;
12059;SDS011;6091;51.432;6.880;2023-11-22T04:03:21;0.98;;;0.98;;
12059;SDS011;6091;51.432;6.880;2023-11-22T04:05:49;0.90;;;0.90;;
12059;SDS011;6091;51.432;6.880;2023-11-22T04:08:17;0.90;;;0.90;;
12059;SDS011;6091;51.432;6.880;2023-11-22T04:10:44;1.23;;;1.20;;
12059;SDS011;6091;51.432;6.880;2023-11-22T04:13:12;1.13;;;1.02;;
12059;SDS011;6091;51.432;6.880;2023-11-22T04:15:39;1.48;;;1.38;;
12059;SDS011;6091;51.432;6.880;2023-11-22T04:18:09;1.02;;;1.00;;
12059;SDS011;6091;51.432;6.880;2023-11-22T04:20:37;0.80;;;0.80;;
12059;SDS011;6091;51.432;6.880;2023-11-22T04:23:04;1.00;;;1.00;;
12059;SDS011;6091;51.432;6.880;2023-11-22T04:25:31;1.08;;;0.98;;
12059;SDS011;6091;51.432;6.880;2023-11-22T04:28:00;1.00;;;1.00;;
12059;SDS011;6091;51.432;6.880;2023-11-22T04:30:27;1.00;;;1.00;;
12059;SDS011;6091;51.432;6.880;2023-11-22T04:32:54;1.00;;;1.00;;
12059;SDS011;6091;51.432;6.880;2023-11-22T04:35:22;1.13;;;1.08;;
12059;SDS011;6091;51.432;6.880;2023-11-22T04:37:49;1.15;;;1.13;;
12059;SDS011;6091;51.432;6.880;2023-11-22T04:40:16;0.93;;;0.93;;
12059;SDS011;6091;51.432;6.880;2023-11-22T04:42:43;1.00;;;1.00;;
12059;SDS011;6091;51.432;6.880;2023-11-22T04:45:11;0.80;;;0.80;;
12059;SDS011;6091;51.432;6.880;2023-11-22T04:47:41;0.98;;;0.98;;
12059;SDS011;6091;51.432;6.880;2023-11-22T04:50:08;1.40;;;1.30;;
12059;SDS011;6091;51.432;6.880;2023-11-22T04:52:36;0.77;;;0.77;;
12059;SDS011;6091;51.432;6.880;2023-11-22T04:55:03;1.25;;;1.20;;
12059;SDS011;6091;51.432;6.880;2023-11-22T04:57:31;1.10;;;1.00;;
12059;SDS011;6091;51.432;6.880;2023-11-22T04:59:58;1.02;;;1.02;;
12059;SDS011;6091;51.432;6.880;2023-11-22T05:02:26;1.00;;;1.00;;
12059;SDS011;6091;51.432;6.880;2023-11-22T05:04:54;1.00;;;1.00;;
12059;SDS011;6091;51.432;6.880;2023-11-22T05:07:23;1.58;;;1.10;;
12059;SDS011;6091;51.432;6.880;2023-11-22T05:09:50;0.85;;;0.85;;
12059;SDS011;6091;51.432;6.880;2023-11-22T05:12:17;1.08;;;1.00;;
12059;SDS011;6091;51.432;6.880;2023-11-22T05:14:44;0.90;;;0.90;;
12059;SDS011;6091;51.432;6.880;2023-11-22T05:17:12;1.02;;;1.00;;
12059;SDS011;6091;51.432;6.880;2023-11-22T05:19:39;0.80;;;0.80;;
12059;SDS011;6091;51.432;6.880;2023-11-22T05:22:06;0.80;;;0.80;;
12059;SDS011;6091;51.432;6.880;2023-11-22T05:24:34;0.82;;;0.82;;
12059;SDS011;6091;51.432;6.880;2023-11-22T05:27:01;1.10;;;1.10;;
12059;SDS011;6091;51.432;6.880;2023-11-22T05:29:28;0.90;;;0.90;;
12059;SDS011;6091;51.432;6.880;2023-11-22T05:32:05;0.85;;;0.85;;
12059;SDS011;6091;51.432;6.880;2023-11-22T05:34:33;0.82;;;0.82;;
12059;SDS011;6091;51.432;6.880;2023-11-22T05:37:00;0.90;;;0.90;;
12059;SDS011;6091;51.432;6.880;2023-11-22T05:39:27;1.10;;;1.10;;
12059;SDS011;6091;51.432;6.880;2023-11-22T05:41:54;0.90;;;0.90;;
12059;SDS011;6091;51.432;6.880;2023-11-22T05:44:23;0.93;;;0.93;;
12059;SDS011;6091;51.432;6.880;2023-11-22T05:46:51;1.10;;;1.00;;
12059;SDS011;6091;51.432;6.880;2023-11-22T05:49:20;0.90;;;0.90;;
12059;SDS011;6091;51.432;6.880;2023-11-22T05:51:50;0.95;;;0.95;;
12059;SDS011;6091;51.432;6.880;2023-11-22T05:54:17;0.95;;;0.95;;
12059;SDS011;6091;51.432;6.880;2023-11-22T05:56:44;0.88;;;0.88;;
12059;SDS011;6091;51.432;6.880;2023-11-22T05:59:11;1.10;;;1.00;;
12059;SDS011;6091;51.432;6.880;2023-11-22T06:01:39;0.85;;;0.82;;
12059;SDS011;6091;51.432;6.880;2023-11-22T06:04:06;0.98;;;0.98;;
12059;SDS011;6091;51.432;6.880;2023-11-22T06:06:36;0.80;;;0.80;;
12059;SDS011;6091;51.432;6.880;2023-11-22T06:09:03;0.90;;;0.90;;
12059;SDS011;6091;51.432;6.880;2023-11-22T06:11:33;0.95;;;0.90;;
12059;SDS011;6091;51.432;6.880;2023-11-22T06:14:01;0.90;;;0.90;;
12059;SDS011;6091;51.432;6.880;2023-11-22T06:16:29;0.90;;;0.90;;
12059;SDS011;6091;51.432;6.880;2023-11-22T06:18:56;0.80;;;0.80;;
12059;SDS011;6091;51.432;6.880;2023-11-22T06:21:23;1.20;;;1.10;;
12059;SDS011;6091;51.432;6.880;2023-11-22T06:23:53;0.85;;;0.85;;
12059;SDS011;6091;51.432;6.880;2023-11-22T06:26:25;0.98;;;0.95;;
12059;SDS011;6091;51.432;6.880;2023-11-22T06:28:52;1.23;;;1.13;;
12059;SDS011;6091;51.432;6.880;2023-11-22T06:31:21;1.05;;;0.95;;
12059;SDS011;6091;51.432;6.880;2023-11-22T06:33:49;1.05;;;1.05;;
12059;SDS011;6091;51.432;6.880;2023-11-22T06:36:16;1.00;;;1.00;;
12059;SDS011;6091;51.432;6.880;2023-11-22T06:38:44;1.13;;;1.02;;
12059;SDS011;6091;51.432;6.880;2023-11-22T06:41:14;1.15;;;1.05;;
12059;SDS011;6091;51.432;6.880;2023-11-22T06:43:43;0.98;;;0.98;;
12059;SDS011;6091;51.432;6.880;2023-11-22T06:46:11;0.90;;;0.90;;
12059;SDS011;6091;51.432;6.880;2023-11-22T06:48:38;1.20;;;1.10;;
12059;SDS011;6091;51.432;6.880;2023-11-22T06:51:05;1.33;;;1.23;;
12059;SDS011;6091;51.432;6.880;2023-11-22T06:53:33;1.00;;;1.00;;
12059;SDS011;6091;51.432;6.880;2023-11-22T06:56:00;1.00;;;1.00;;
12059;SDS011;6091;51.432;6.880;2023-11-22T06:58:30;1.25;;;1.13;;
12059;SDS011;6091;51.432;6.880;2023-11-22T07:00:57;0.90;;;0.90;;
12059;SDS011;6091;51.432;6.880;2023-11-22T07:03:24;1.20;;;1.20;;
12059;SDS011;6091;51.432;6.880;2023-11-22T07:05:52;0.95;;;0.90;;
12059;SDS011;6091;51.432;6.880;2023-11-22T07:08:19;1.42;;;1.33;;
12059;SDS011;6091;51.432;6.880;2023-11-22T07:10:49;1.33;;;1.23;;
12059;SDS011;6091;51.432;6.880;2023-11-22T07:13:17;2.00;;;1.40;;
12059;SDS011;6091;51.432;6.880;2023-11-22T07:15:44;1.30;;;1.20;;
12059;SDS011;6091;51.432;6.880;2023-11-22T07:18:11;1.40;;;1.30;;
12059;SDS011;6091;51.432;6.880;2023-11-22T07:20:40;1.95;;;1.30;;
12059;SDS011;6091;51.432;6.880;2023-11-22T07:23:09;1.35;;;1.25;;
12059;SDS011;6091;51.432;6.880;2023-11-22T07:25:40;1.63;;;1.52;;
12059;SDS011;6091;51.432;6.880;2023-11-22T07:28:14;1.50;;;1.40;;
12059;SDS011;6091;51.432;6.880;2023-11-22T07:30:42;3.05;;;1.50;;
12059;SDS011;6091;51.432;6.880;2023-11-22T07:33:09;1.48;;;1.38;;
12059;SDS011;6091;51.432;6.880;2023-11-22T07:35:37;1.33;;;1.10;;
12059;SDS011;6091;51.432;6.880;2023-11-22T07:38:05;1.95;;;1.20;;
12059;SDS011;6091;51.432;6.880;2023-11-22T07:40:35;1.40;;;1.30;;
12059;SDS011;6091;51.432;6.880;2023-11-22T07:43:03;2.95;;;1.13;;
12059;SDS011;6091;51.432;6.880;2023-11-22T07:45:31;1.58;;;1.48;;
12059;SDS011;6091;51.432;6.880;2023-11-22T07:47:58;1.50;;;1.40;;
12059;SDS011;6091;51.432;6.880;2023-11-22T07:50:29;2.47;;;1.42;;
12059;SDS011;6091;51.432;6.880;2023-11-22T07:52:57;1.40;;;1.30;;
12059;SDS011;6091;51.432;6.880;2023-11-22T07:55:24;1.30;;;1.20;;
12059;SDS011;6091;51.432;6.880;2023-11-22T07:57:51;1.40;;;1.30;;
12059;SDS011;6091;51.432;6.880;2023-11-22T08:00:19;1.80;;;1.25;;
12059;SDS011;6091;51.432;6.880;2023-11-22T08:02:48;1.50;;;1.40;;
12059;SDS011;6091;51.432;6.880;2023-11-22T08:05:16;1.60;;;1.20;;
12059;SDS011;6091;51.432;6.880;2023-11-22T08:07:44;2.50;;;1.45;;
12059;SDS011;6091;51.432;6.880;2023-11-22T08:10:15;1.65;;;1.55;;
12059;SDS011;6091;51.432;6.880;2023-11-22T08:12:47;1.50;;;1.40;;
12059;SDS011;6091;51.432;6.880;2023-11-22T08:15:17;2.58;;;1.33;;
12059;SDS011;6091;51.432;6.880;2023-11-22T08:17:46;1.75;;;1.42;;
12059;SDS011;6091;51.432;6.880;2023-11-22T08:20:14;1.58;;;1.48;;
12059;SDS011;6091;51.432;6.880;2023-11-22T08:22:45;2.60;;;1.30;;
12059;SDS011;6091;51.432;6.880;2023-11-22T08:25:13;2.47;;;1.50;;
12059;SDS011;6091;51.432;6.880;2023-11-22T08:27:42;2.15;;;1.58;;
12059;SDS011;6091;51.432;6.880;2023-11-22T08:30:10;1.70;;;1.50;;
12059;SDS011;6091;51.432;6.880;2023-11-22T08:32:42;4.32;;;1.77;;
12059;SDS011;6091;51.432;6.880;2023-11-22T08:35:20;7.18;;;2.08;;
12059;SDS011;6091;51.432;6.880;2023-11-22T08:37:50;2.35;;;1.60;;
12059;SDS011;6091;51.432;6.880;2023-11-22T08:40:18;2.05;;;1.63;;
12059;SDS011;6091;51.432;6.880;2023-11-22T08:42:47;5.07;;;1.98;;
12059;SDS011;6091;51.432;6.880;2023-11-22T08:45:15;2.70;;;1.70;;
12059;SDS011;6091;51.432;6.880;2023-11-22T08:47:43;1.88;;;1.63;;
12059;SDS011;6091;51.432;6.880;2023-11-22T08:50:12;1.90;;;1.60;;
12059;SDS011;6091;51.432;6.880;2023-11-22T08:52:42;2.05;;;1.42;;
12059;SDS011;6091;51.432;6.880;2023-11-22T08:55:11;4.60;;;1.50;;
12059;SDS011;6091;51.432;6.880;2023-11-22T08:57:41;2.47;;;1.73;;
12059;SDS011;6091;51.432;6.880;2023-11-22T09:00:08;2.63;;;1.80;;
12059;SDS011;6091;51.432;6.880;2023-11-22T09:02:37;3.83;;;1.95;;
12059;SDS011;6091;51.432;6.880;2023-11-22T09:08:25;3.30;;;1.77;;
12059;SDS011;6091;51.432;6.880;2023-11-22T09:11:32;4.80;;;1.73;;
12059;SDS011;6091;51.432;6.880;2023-11-22T09:14:01;5.77;;;2.17;;
12059;SDS011;6091;51.432;6.880;2023-11-22T09:16:37;5.93;;;2.60;;
12059;SDS011;6091;51.432;6.880;2023-11-22T09:19:05;5.15;;;2.05;;
12059;SDS011;6091;51.432;6.880;2023-11-22T09:21:33;10.57;;;2.42;;
12059;SDS011;6091;51.432;6.880;2023-11-22T09:24:00;6.60;;;2.45;;
12059;SDS011;6091;51.432;6.880;2023-11-22T09:26:27;6.85;;;1.90;;
12059;SDS011;6091;51.432;6.880;2023-11-22T09:28:56;5.95;;;2.45;;
12059;SDS011;6091;51.432;6.880;2023-11-22T09:31:23;8.57;;;2.88;;
12059;SDS011;6091;51.432;6.880;2023-11-22T09:33:52;10.32;;;2.55;;
12059;SDS011;6091;51.432;6.880;2023-11-22T09:36:19;6.07;;;2.53;;
12059;SDS011;6091;51.432;6.880;2023-11-22T09:38:46;5.65;;;2.60;;
12059;SDS011;6091;51.432;6.880;2023-11-22T09:41:14;7.13;;;2.63;;
12059;SDS011;6091;51.432;6.880;2023-11-22T09:43:42;7.18;;;2.53;;
12059;SDS011;6091;51.432;6.880;2023-11-22T09:46:12;6.30;;;2.30;;
12059;SDS011;6091;51.432;6.880;2023-11-22T09:48:40;7.20;;;2.67;;
12059;SDS011;6091;51.432;6.880;2023-11-22T09:51:15;3.90;;;2.22;;
12059;SDS011;6091;51.432;6.880;2023-11-22T09:53:56;6.90;;;2.20;;
12059;SDS011;6091;51.432;6.880;2023-11-22T09:56:35;10.82;;;2.63;;
12059;SDS011;6091;51.432;6.880;2023-11-22T09:59:03;4.68;;;2.40;;
12059;SDS011;6091;51.432;6.880;2023-11-22T10:01:33;4.30;;;2.38;;
12059;SDS011;6091;51.432;6.880;2023-11-22T10:04:05;10.73;;;3.33;;
12059;SDS011;6091;51.432;6.880;2023-11-22T10:06:32;8.25;;;2.20;;
12059;SDS011;6091;51.432;6.880;2023-11-22T10:09:02;4.90;;;2.05;;
12059;SDS011;6091;51.432;6.880;2023-11-22T10:11:36;6.07;;;2.20;;
12059;SDS011;6091;51.432;6.880;2023-11-22T10:14:05;16.52;;;2.50;;
12059;SDS011;6091;51.432;6.880;2023-11-22T10:16:32;5.38;;;1.90;;
12059;SDS011;6091;51.432;6.880;2023-11-22T10:19:00;3.03;;;1.75;;
12059;SDS011;6091;51.432;6.880;2023-11-22T10:21:27;6.60;;;2.53;;
12059;SDS011;6091;51.432;6.880;2023-11-22T10:24:01;6.25;;;2.22;;
12059;SDS011;6091;51.432;6.880;2023-11-22T10:26:31;4.43;;;2.15;;
12059;SDS011;6091;51.432;6.880;2023-11-22T10:28:59;8.95;;;2.03;;
12059;SDS011;6091;51.432;6.880;2023-11-22T10:31:26;4.40;;;1.85;;
12059;SDS011;6091;51.432;6.880;2023-11-22T10:33:54;3.72;;;2.05;;
12059;SDS011;6091;51.432;6.880;2023-11-22T10:36:24;5.10;;;2.10;;
12059;SDS011;6091;51.432;6.880;2023-11-22T10:38:51;5.53;;;2.20;;
12059;SDS011;6091;51.432;6.880;2023-11-22T10:41:20;7.43;;;2.33;;
12059;SDS011;6091;51.432;6.880;2023-11-22T10:43:53;4.40;;;1.90;;
12059;SDS011;6091;51.432;6.880;2023-11-22T10:46:29;4.15;;;1.88;;
12059;SDS011;6091;51.432;6.880;2023-11-22T10:48:57;4.07;;;1.75;;
12059;SDS011;6091;51.432;6.880;2023-11-22T10:51:30;6.30;;;1.98;;
12059;SDS011;6091;51.432;6.880;2023-11-22T10:54:00;4.82;;;2.00;;
12059;SDS011;6091;51.432;6.880;2023-11-22T10:56:36;3.20;;;1.70;;
12059;SDS011;6091;51.432;6.880;2023-11-22T10:59:13;7.13;;;2.20;;
12059;SDS011;6091;51.432;6.880;2023-11-22T11:01:44;7.65;;;2.25;;
12059;SDS011;6091;51.432;6.880;2023-11-22T11:04:19;3.10;;;1.77;;
12059;SDS011;6091;51.432;6.880;2023-11-22T11:07:37;7.55;;;2.17;;
12059;SDS011;6091;51.432;6.880;2023-11-22T11:10:08;9.07;;;1.88;;
12059;SDS011;6091;51.432;6.880;2023-11-22T11:12:50;4.80;;;2.15;;
12059;SDS011;6091;51.432;6.880;2023-11-22T11:15:17;3.50;;;1.67;;
12059;SDS011;6091;51.432;6.880;2023-11-22T11:17:48;7.03;;;2.20;;
12059;SDS011;6091;51.432;6.880;2023-11-22T11:20:17;8.65;;;2.42;;
12059;SDS011;6091;51.432;6.880;2023-11-22T11:22:47;8.00;;;2.15;;
12059;SDS011;6091;51.432;6.880;2023-11-22T11:25:15;5.20;;;1.60;;
12059;SDS011;6091;51.432;6.880;2023-11-22T11:27:55;4.20;;;1.60;;
12059;SDS011;6091;51.432;6.880;2023-11-22T11:30:40;2.25;;;1.73;;
12059;SDS011;6091;51.432;6.880;2023-11-22T11:33:34;3.75;;;2.05;;
12059;SDS011;6091;51.432;6.880;2023-11-22T11:36:24;7.50;;;1.83;;
12059;SDS011;6091;51.432;6.880;2023-11-22T11:38:59;4.38;;;2.00;;
12059;SDS011;6091;51.432;6.880;2023-11-22T11:41:32;4.15;;;2.00;;
12059;SDS011;6091;51.432;6.880;2023-11-22T11:44:01;3.85;;;1.50;;
12059;SDS011;6091;51.432;6.880;2023-11-22T11:46:30;2.50;;;1.67;;
12059;SDS011;6091;51.432;6.880;2023-11-22T11:48:59;7.22;;;2.20;;
12059;SDS011;6091;51.432;6.880;2023-11-22T11:51:28;6.43;;;1.80;;
12059;SDS011;6091;51.432;6.880;2023-11-22T11:53:55;2.97;;;1.70;;
12059;SDS011;6091;51.432;6.880;2023-11-22T11:56:23;2.88;;;1.90;;
12059;SDS011;6091;51.432;6.880;2023-11-22T11:58:55;5.47;;;1.70;;
12059;SDS011;6091;51.432;6.880;2023-11-22T12:01:29;3.15;;;1.63;;
12059;SDS011;6091;51.432;6.880;2023-11-22T12:04:02;3.72;;;2.20;;
12059;SDS011;6091;51.432;6.880;2023-11-22T12:06:30;3.45;;;2.05;;
12059;SDS011;6091;51.432;6.880;2023-11-22T12:09:02;5.65;;;1.98;;
12059;SDS011;6091;51.432;6.880;2023-11-22T12:11:30;7.80;;;2.35;;
12059;SDS011;6091;51.432;6.880;2023-11-22T12:13:58;5.88;;;1.98;;
12059;SDS011;6091;51.432;6.880;2023-11-22T12:16:25;5.30;;;1.63;;
12059;SDS011;6091;51.432;6.880;2023-11-22T12:18:54;2.58;;;1.70;;
12059;SDS011;6091;51.432;6.880;2023-11-22T12:21:23;2.15;;;1.83;;
12059;SDS011;6091;51.432;6.880;2023-11-22T12:23:51;7.28;;;2.40;;
12059;SDS011;6091;51.432;6.880;2023-11-22T12:26:19;4.80;;;1.90;;
12059;SDS011;6091;51.432;6.880;2023-11-22T12:28:48;5.78;;;2.40;;
12059;SDS011;6091;51.432;6.880;2023-11-22T12:31:29;6.95;;;1.80;;
12059;SDS011;6091;51.432;6.880;2023-11-22T12:34:03;4.78;;;1.73;;
12059;SDS011;6091;51.432;6.880;2023-11-22T12:36:33;4.97;;;2.13;;
12059;SDS011;6091;51.432;6.880;2023-11-22T12:39:03;4.38;;;1.52;;
12059;SDS011;6091;51.432;6.880;2023-11-22T12:41:47;3.55;;;1.52;;
12059;SDS011;6091;51.432;6.880;2023-11-22T12:44:31;4.28;;;1.67;;
12059;SDS011;6091;51.432;6.880;2023-11-22T12:47:13;1.50;;;1.40;;
12059;SDS011;6091;51.432;6.880;2023-11-22T12:49:45;3.70;;;1.40;;
12059;SDS011;6091;51.432;6.880;2023-11-22T12:52:13;3.65;;;2.03;;
12059;SDS011;6091;51.432;6.880;2023-11-22T12:54:40;3.50;;;1.42;;
12059;SDS011;6091;51.432;6.880;2023-11-22T12:57:10;1.48;;;1.38;;
12059;SDS011;6091;51.432;6.880;2023-11-22T12:59:39;2.47;;;1.20;;
12059;SDS011;6091;51.432;6.880;2023-11-22T13:02:07;4.30;;;1.70;;
12059;SDS011;6091;51.432;6.880;2023-11-22T13:04:35;4.35;;;1.55;;
12059;SDS011;6091;51.432;6.880;2023-11-22T13:07:03;2.78;;;1.50;;
12059;SDS011;6091;51.432;6.880;2023-11-22T13:09:31;2.15;;;1.40;;
12059;SDS011;6091;51.432;6.880;2023-11-22T13:12:00;4.85;;;1.75;;
12059;SDS011;6091;51.432;6.880;2023-11-22T13:14:27;4.70;;;1.50;;
12059;SDS011;6091;51.432;6.880;2023-11-22T13:16:58;5.00;;;1.58;;
12059;SDS011;6091;51.432;6.880;2023-11-22T13:19:25;4.10;;;1.30;;
12059;SDS011;6091;51.432;6.880;2023-11-22T13:21:53;4.85;;;1.60;;
12059;SDS011;6091;51.432;6.880;2023-11-22T13:24:23;3.70;;;1.60;;
12059;SDS011;6091;51.432;6.880;2023-11-22T13:26:50;2.00;;;1.40;;
12059;SDS011;6091;51.432;6.880;2023-11-22T13:29:17;4.03;;;1.80;;
12059;SDS011;6091;51.432;6.880;2023-11-22T13:31:44;2.45;;;1.50;;
12059;SDS011;6091;51.432;6.880;2023-11-22T13:34:11;3.25;;;1.40;;
12059;SDS011;6091;51.432;6.880;2023-11-22T13:36:39;2.78;;;1.50;;
12059;SDS011;6091;51.432;6.880;2023-11-22T13:39:06;2.65;;;1.60;;
12059;SDS011;6091;51.432;6.880;2023-11-22T13:41:33;3.22;;;1.13;;
12059;SDS011;6091;51.432;6.880;2023-11-22T13:44:01;3.85;;;1.35;;
12059;SDS011;6091;51.432;6.880;2023-11-22T13:46:28;2.35;;;1.55;;
12059;SDS011;6091;51.432;6.880;2023-11-22T13:48:55;2.50;;;1.20;;
12059;SDS011;6091;51.432;6.880;2023-11-22T13:51:24;6.20;;;1.25;;
12059;SDS011;6091;51.432;6.880;2023-11-22T13:53:51;2.97;;;1.58;;
12059;SDS011;6091;51.432;6.880;2023-11-22T13:56:20;6.68;;;1.48;;
12059;SDS011;6091;51.432;6.880;2023-11-22T13:58:51;2.33;;;1.30;;
12059;SDS011;6091;51.432;6.880;2023-11-22T14:01:18;4.53;;;1.20;;
12059;SDS011;6091;51.432;6.880;2023-11-22T14:03:48;4.85;;;1.30;;
12059;SDS011;6091;51.432;6.880;2023-11-22T14:06:16;1.90;;;1.20;;
12059;SDS011;6091;51.432;6.880;2023-11-22T14:08:43;2.53;;;1.38;;
12059;SDS011;6091;51.432;6.880;2023-11-22T14:11:11;1.90;;;1.30;;
12059;SDS011;6091;51.432;6.880;2023-11-22T14:13:39;3.03;;;1.40;;
12059;SDS011;6091;51.432;6.880;2023-11-22T14:16:07;2.17;;;1.20;;
12059;SDS011;6091;51.432;6.880;2023-11-22T14:18:35;3.15;;;1.45;;
12059;SDS011;6091;51.432;6.880;2023-11-22T14:21:03;2.30;;;1.20;;
12059;SDS011;6091;51.432;6.880;2023-11-22T14:23:31;1.75;;;1.02;;
12059;SDS011;6091;51.432;6.880;2023-11-22T14:26:00;4.25;;;1.30;;
12059;SDS011;6091;51.432;6.880;2023-11-22T14:28:29;3.35;;;1.10;;
12059;SDS011;6091;51.432;6.880;2023-11-22T14:30:56;2.60;;;1.42;;
12059;SDS011;6091;51.432;6.880;2023-11-22T14:33:24;1.15;;;1.13;;
12059;SDS011;6091;51.432;6.880;2023-11-22T14:35:51;3.42;;;1.15;;
12059;SDS011;6091;51.432;6.880;2023-11-22T14:38:18;2.70;;;1.30;;
12059;SDS011;6091;51.432;6.880;2023-11-22T14:40:48;2.92;;;1.30;;
12059;SDS011;6091;51.432;6.880;2023-11-22T14:43:15;1.13;;;1.02;;
12059;SDS011;6091;51.432;6.880;2023-11-22T14:45:43;1.48;;;1.00;;
12059;SDS011;6091;51.432;6.880;2023-11-22T14:48:10;2.58;;;0.88;;
12059;SDS011;6091;51.432;6.880;2023-11-22T14:50:40;1.08;;;1.00;;
12059;SDS011;6091;51.432;6.880;2023-11-22T14:53:07;1.15;;;0.98;;
12059;SDS011;6091;51.432;6.880;2023-11-22T14:55:34;1.88;;;1.13;;
12059;SDS011;6091;51.432;6.880;2023-11-22T14:58:07;2.13;;;1.10;;
12059;SDS011;6091;51.432;6.880;2023-11-22T15:00:34;2.00;;;1.05;;
12059;SDS011;6091;51.432;6.880;2023-11-22T15:03:03;1.60;;;1.08;;
12059;SDS011;6091;51.432;6.880;2023-11-22T15:05:31;1.88;;;0.90;;
12059;SDS011;6091;51.432;6.880;2023-11-22T15:07:58;1.48;;;1.15;;
12059;SDS011;6091;51.432;6.880;2023-11-22T15:10:26;1.98;;;0.82;;
12059;SDS011;6091;51.432;6.880;2023-11-22T15:12:54;1.85;;;1.35;;
12059;SDS011;6091;51.432;6.880;2023-11-22T15:15:22;1.13;;;0.90;;